Time,TemperatureF,DewpointF,PressureIn,WindDirection,WindDirectionDegrees,WindSpeedMPH,WindSpeedGustMPH,Humidity,HourlyPrecipIn,Conditions,Clouds,dailyrainin,SoftwareType,DateUTC
2013-04-09 00:02:00,59.4,31.6,29.93,WSW,249,3.0,9.0,35,0.00,,,0.00,meteohub,2013-04-09 07:02:00,
2013-04-09 00:22:00,58.8,31.3,29.93,NW,313,5.0,6.0,35,0.00,,,0.00,meteohub,2013-04-09 07:22:00,
2013-04-09 00:42:00,58.8,31.3,29.96,NW,326,3.0,8.0,35,0.00,,,0.00,meteohub,2013-04-09 07:42:00,
2013-04-09 01:02:00,58.8,31.3,29.96,NW,313,5.0,9.0,35,0.00,,,0.00,meteohub,2013-04-09 08:02:00,
2013-04-09 01:22:00,58.5,30.9,29.96,NW,324,5.0,8.0,35,0.00,,,0.00,meteohub,2013-04-09 08:22:00,
2013-04-09 01:42:00,59.4,31.6,29.96,NNW,333,8.0,11.0,35,0.00,,,0.00,meteohub,2013-04-09 08:42:00,
2013-04-09 02:02:00,59.9,32.2,29.96,WNW,299,11.0,13.0,35,0.00,,,0.00,meteohub,2013-04-09 09:02:00,
2013-04-09 02:22:00,59.4,31.6,29.96,NW,312,6.0,13.0,35,0.00,,,0.00,meteohub,2013-04-09 09:22:00,
2013-04-09 02:42:00,59.2,30.7,29.96,WNW,286,7.0,9.0,34,0.00,,,0.00,meteohub,2013-04-09 09:42:00,
2013-04-09 03:02:00,58.6,31.1,29.96,NW,310,4.0,9.0,35,0.00,,,0.00,meteohub,2013-04-09 10:02:00,
2013-04-09 03:22:00,57.6,30.0,29.96,NNW,330,6.0,8.0,35,0.00,,,0.00,meteohub,2013-04-09 10:22:00,
2013-04-09 03:42:00,57.6,30.0,29.96,NW,320,5.0,8.0,35,0.00,,,0.00,meteohub,2013-04-09 10:42:00,
2013-04-09 04:02:00,55.6,28.4,29.96,NW,312,5.0,5.0,35,0.00,,,0.00,meteohub,2013-04-09 11:02:00,
2013-04-09 04:22:00,57.2,29.8,29.96,NNW,341,6.0,8.0,35,0.00,,,0.00,meteohub,2013-04-09 11:22:00,
2013-04-09 04:42:00,54.5,28.0,29.96,East,95,0.0,4.0,36,0.00,,,0.00,meteohub,2013-04-09 11:42:00,
2013-04-09 05:02:00,52.0,25.9,29.96,East,96,0.0,0.0,36,0.00,,,0.00,meteohub,2013-04-09 12:02:00,
2013-04-09 05:22:00,50.5,24.6,29.99,East,95,4.0,0.0,36,0.00,,,0.00,meteohub,2013-04-09 12:22:00,
2013-04-09 05:42:00,50.2,25.0,29.99,ESE,109,0.0,3.0,37,0.00,,,0.00,meteohub,2013-04-09 12:42:00,
2013-04-09 06:02:00,49.6,24.4,29.99,ESE,109,0.0,0.0,37,0.00,,,0.00,meteohub,2013-04-09 13:02:00,
2013-04-09 06:22:00,49.3,24.1,30.01,ESE,109,0.0,4.0,37,0.00,,,0.00,meteohub,2013-04-09 13:22:00,
2013-04-09 06:42:00,48.7,23.5,30.01,ESE,109,0.0,4.0,37,0.00,,,0.00,meteohub,2013-04-09 13:42:00,
2013-04-09 07:02:00,48.6,23.5,30.01,ESE,109,0.0,0.0,37,0.00,,,0.00,meteohub,2013-04-09 14:02:00,
2013-04-09 07:22:00,50.4,25.7,30.01,ESE,109,2.0,4.0,38,0.00,,,0.00,meteohub,2013-04-09 14:22:00,
2013-04-09 07:42:00,52.9,29.8,30.01,SSE,158,0.0,5.0,41,0.00,,,0.00,meteohub,2013-04-09 14:42:00,
2013-04-09 08:02:00,55.6,32.2,-100.00,West,270,0.0,0.0,41,0.00,,,0.00,meteohub,2013-04-09 15:02:00,
2013-04-09 08:22:00,57.6,32.2,30.04,NNE,28,0.0,4.0,38,0.00,,,0.00,meteohub,2013-04-09 15:22:00,
2013-04-09 08:42:00,59.4,31.6,30.04,NE,37,0.0,3.0,35,0.00,,,0.00,meteohub,2013-04-09 15:42:00,
2013-04-09 09:02:00,60.6,32.9,30.04,NNW,327,4.0,6.0,35,0.00,,,0.00,meteohub,2013-04-09 16:02:00,
2013-04-09 09:22:00,63.5,34.7,30.04,NW,322,6.0,8.0,34,0.00,,,0.00,meteohub,2013-04-09 16:22:00,
2013-04-09 09:42:00,65.1,35.2,30.04,WNW,302,5.0,9.0,33,0.00,,,0.00,meteohub,2013-04-09 16:42:00,
2013-04-09 10:02:00,67.5,37.4,30.04,NW,320,11.0,12.0,33,0.00,,,0.00,meteohub,2013-04-09 17:02:00,
2013-04-09 10:22:00,68.4,38.1,30.01,West,266,6.0,11.0,33,0.00,,,0.00,meteohub,2013-04-09 17:22:00,
2013-04-09 10:42:00,66.6,36.5,30.01,SSW,205,6.0,11.0,33,0.00,,,0.00,meteohub,2013-04-09 17:42:00,
2013-04-09 11:02:00,64.9,35.1,-100.00,SSE,157,12.0,17.0,33,0.00,,,0.00,meteohub,2013-04-09 18:02:00,
2013-04-09 11:22:00,63.9,34.9,30.04,SW,221,10.0,13.0,34,0.00,,,0.00,meteohub,2013-04-09 18:22:00,
2013-04-09 11:42:00,64.0,35.1,30.04,SW,224,8.0,14.0,34,0.00,,,0.00,meteohub,2013-04-09 18:42:00,
2013-04-09 12:02:00,64.9,35.1,30.01,SW,217,10.0,15.0,33,0.00,,,0.00,meteohub,2013-04-09 19:02:00,
2013-04-09 12:22:00,65.1,35.2,30.01,West,265,8.0,15.0,33,0.00,,,0.00,meteohub,2013-04-09 19:22:00,
2013-04-09 12:42:00,65.8,36.0,30.01,SSW,196,6.0,13.0,33,0.00,,,0.00,meteohub,2013-04-09 19:42:00,
2013-04-09 13:02:00,68.5,38.3,30.01,SSW,198,8.0,11.0,33,0.00,,,0.00,meteohub,2013-04-09 20:02:00,
2013-04-09 13:22:00,67.8,37.6,29.99,SSW,213,8.0,13.0,33,0.00,,,0.00,meteohub,2013-04-09 20:22:00,
2013-04-09 13:42:00,68.0,37.8,29.99,SW,233,15.0,15.0,33,0.00,,,0.00,meteohub,2013-04-09 20:42:00,
2013-04-09 14:02:00,70.3,39.0,-100.00,WSW,247,11.0,16.0,32,0.00,,,0.00,meteohub,2013-04-09 21:02:00,
2013-04-09 14:22:00,64.6,34.9,29.99,SW,220,13.0,21.0,33,0.00,,,0.00,meteohub,2013-04-09 21:22:00,
2013-04-09 14:42:00,67.8,37.6,-100.00,WNW,286,10.0,18.0,33,0.00,,,0.00,meteohub,2013-04-09 21:42:00,
2013-04-09 15:02:00,68.5,37.6,29.99,WNW,282,10.0,18.0,32,0.00,,,0.00,meteohub,2013-04-09 22:02:00,
2013-04-09 15:22:00,68.7,37.6,29.99,West,262,11.0,17.0,32,0.00,,,0.00,meteohub,2013-04-09 22:22:00,
2013-04-09 15:42:00,66.6,36.5,29.99,SW,236,6.0,19.0,33,0.00,,,0.00,meteohub,2013-04-09 22:42:00,
2013-04-09 16:02:00,67.8,37.6,29.99,WSW,239,10.0,17.0,33,0.00,,,0.00,meteohub,2013-04-09 23:02:00,
2013-04-09 16:22:00,67.8,37.6,29.99,West,277,17.0,19.0,33,0.00,,,0.00,meteohub,2013-04-09 23:22:00,
2013-04-09 16:42:00,66.6,36.5,29.99,WSW,257,11.0,17.0,33,0.00,,,0.00,meteohub,2013-04-09 23:42:00,
2013-04-09 17:02:00,65.8,36.0,29.99,WSW,254,12.0,18.0,33,0.00,,,0.00,meteohub,2013-04-10 00:02:00,
2013-04-09 17:22:00,66.0,36.1,29.99,West,276,15.0,15.0,33,0.00,,,0.00,meteohub,2013-04-10 00:22:00,
2013-04-09 17:42:00,66.0,36.1,29.99,West,272,8.0,17.0,33,0.00,,,0.00,meteohub,2013-04-10 00:42:00,
2013-04-09 18:02:00,64.8,35.1,29.99,SW,233,10.0,13.0,33,0.00,,,0.00,meteohub,2013-04-10 01:02:00,
2013-04-09 18:22:00,64.2,35.2,30.01,WSW,249,8.0,13.0,34,0.00,,,0.00,meteohub,2013-04-10 01:22:00,
2013-04-09 18:42:00,62.2,33.4,30.01,WSW,244,8.0,11.0,34,0.00,,,0.00,meteohub,2013-04-10 01:42:00,
2013-04-09 19:02:00,61.2,32.5,30.01,WSW,255,8.0,13.0,34,0.00,,,0.00,meteohub,2013-04-10 02:02:00,
2013-04-09 19:22:00,58.8,32.0,30.01,West,261,5.0,11.0,36,0.00,,,0.00,meteohub,2013-04-10 02:22:00,
2013-04-09 19:42:00,58.3,31.5,30.01,WSW,253,7.0,11.0,36,0.00,,,0.00,meteohub,2013-04-10 02:42:00,
2013-04-09 20:02:00,57.9,32.5,30.01,WSW,239,8.0,11.0,38,0.00,,,0.00,meteohub,2013-04-10 03:02:00,
2013-04-09 20:22:00,57.7,32.4,30.01,WSW,239,5.0,10.0,38,0.00,,,0.00,meteohub,2013-04-10 03:22:00,
2013-04-09 20:42:00,57.6,31.5,30.04,SSE,165,4.0,6.0,37,0.00,,,0.00,meteohub,2013-04-10 03:42:00,
2013-04-09 21:02:00,57.0,30.9,30.04,West,259,0.0,6.0,37,0.00,,,0.00,meteohub,2013-04-10 04:02:00,
2013-04-09 21:22:00,56.1,30.2,30.04,East,97,0.0,0.0,37,0.00,,,0.00,meteohub,2013-04-10 04:22:00,
2013-04-09 21:42:00,55.2,30.0,30.07,East,98,0.0,0.0,38,0.00,,,0.00,meteohub,2013-04-10 04:42:00,
2013-04-09 22:02:00,54.5,30.0,30.07,SE,124,0.0,0.0,39,0.00,,,0.00,meteohub,2013-04-10 05:02:00,
2013-04-09 22:22:00,54.5,30.7,30.07,SE,124,0.0,0.0,40,0.00,,,0.00,meteohub,2013-04-10 05:22:00,
2013-04-09 22:42:00,53.6,30.4,30.07,SE,124,3.0,0.0,41,0.00,,,0.00,meteohub,2013-04-10 05:42:00,
2013-04-09 23:02:00,53.4,30.9,30.10,SE,124,0.0,3.0,42,0.00,,,0.00,meteohub,2013-04-10 06:02:00,
2013-04-09 23:22:00,53.4,32.0,30.10,ESE,113,3.0,5.0,44,0.00,,,0.00,meteohub,2013-04-10 06:22:00,
2013-04-09 23:42:00,53.1,32.9,30.10,ESE,118,3.0,4.0,46,0.00,,,0.00,meteohub,2013-04-10 06:42:00,